createdAt,value
2023-08-14T02:52:31.206Z,97840.47
2023-08-14T02:55:44.039Z,97842.09
2023-08-14T02:58:22.814Z,97847.91
2023-08-14T03:06:37.304Z,97836.97
2023-08-14T03:09:29.586Z,97831.72
2023-08-14T03:12:19.787Z,97831.72
2023-08-14T03:15:27.730Z,97821.81
2023-08-14T03:18:00.640Z,97824.91
2023-08-14T03:20:32.122Z,97827.53
2023-08-14T03:23:08.433Z,97815.25
2023-08-14T03:25:39.554Z,97819.97
2023-08-14T03:28:08.042Z,97820.47
2023-08-14T03:30:42.242Z,97823.38
2023-08-14T03:33:10.632Z,97830.28
2023-08-14T03:35:38.932Z,97820.47
2023-08-14T03:38:06.614Z,97826.50
2023-08-14T03:40:34.114Z,97823.00
2023-08-14T03:43:01.207Z,97827.28
2023-08-14T03:45:29.017Z,97822.59
2023-08-14T03:48:08.881Z,97827.91
2023-08-14T03:50:48.916Z,97823.75
2023-08-14T03:53:16.233Z,97811.28
2023-08-14T03:55:45.962Z,97813.69
2023-08-14T03:58:13.165Z,97823.66
2023-08-14T04:00:40.372Z,97823.75
2023-08-14T04:03:07.790Z,97819.88
2023-08-14T04:05:41.525Z,97828.00
2023-08-14T04:08:09.779Z,97829.84
2023-08-14T04:10:38.465Z,97836.13
2023-08-14T04:13:05.681Z,97835.38
2023-08-14T04:15:33.391Z,97838.28
2023-08-14T04:18:01.054Z,97845.63
2023-08-14T04:20:28.384Z,97846.97
2023-08-14T04:22:55.701Z,97836.28
2023-08-14T04:25:23.224Z,97847.50
2023-08-14T04:27:50.598Z,97843.13
2023-08-14T04:30:18.121Z,97847.75
2023-08-14T04:32:45.433Z,97842.22
2023-08-14T04:35:13.016Z,97846.38
2023-08-14T04:37:41.671Z,97837.69
2023-08-14T04:40:09.623Z,97826.66
2023-08-14T04:42:39.534Z,97830.53
2023-08-14T04:45:08.663Z,97830.75
2023-08-14T04:47:35.899Z,97824.16
2023-08-14T04:50:04.833Z,97824.91
2023-08-14T04:52:32.308Z,97823.84
2023-08-14T04:54:59.532Z,97826.19
2023-08-14T04:57:29.661Z,97829.00
2023-08-14T04:59:57.261Z,97831.59
2023-08-14T05:02:24.632Z,97830.28
2023-08-14T05:04:51.841Z,97820.75
2023-08-14T05:07:19.011Z,97816.03
2023-08-14T05:09:49.774Z,97815.44
2023-08-14T05:12:17.725Z,97813.88
2023-08-14T05:14:45.113Z,97813.59
2023-08-14T05:17:12.415Z,97808.09
2023-08-14T05:19:39.665Z,97819.50
2023-08-14T05:22:06.816Z,97819.72
2023-08-14T05:24:34.037Z,97808.66
2023-08-14T05:27:01.252Z,97809.41
2023-08-14T05:29:28.600Z,97817.94
2023-08-14T05:31:55.794Z,97821.06
2023-08-14T05:34:22.961Z,97823.59
2023-08-14T05:36:50.094Z,97820.84
2023-08-14T05:39:19.678Z,97824.91
2023-08-14T05:41:46.908Z,97830.66
2023-08-14T05:44:14.028Z,97829.50
2023-08-14T05:46:46.543Z,97824.16
2023-08-14T05:49:15.396Z,97819.09
2023-08-14T05:51:42.546Z,97821.63
2023-08-14T05:54:10.286Z,97819.09
2023-08-14T05:56:37.475Z,97820.69
2023-08-14T05:59:04.997Z,97819.34
2023-08-14T06:01:32.194Z,97825.53
2023-08-14T06:03:59.441Z,97840.44
2023-08-14T06:06:26.614Z,97830.03
2023-08-14T06:08:53.852Z,97832.13
2023-08-14T06:11:20.986Z,97822.19
2023-08-14T06:13:48.134Z,97825.81
2023-08-14T06:16:15.271Z,97824.97
2023-08-14T06:18:42.325Z,97818.84
2023-08-14T06:21:09.662Z,97817.06
2023-08-14T06:23:37.034Z,97801.97
2023-08-14T06:26:04.402Z,97801.53
2023-08-14T06:28:31.535Z,97803.00
2023-08-14T06:31:03.466Z,97792.19
2023-08-14T06:33:30.780Z,97788.69
2023-08-14T06:35:58.006Z,97793.16
2023-08-14T06:38:25.308Z,97787.94
2023-08-14T06:40:52.384Z,97800.59
2023-08-14T06:43:19.938Z,97800.16
2023-08-14T06:45:48.006Z,97807.09
2023-08-14T06:48:15.695Z,97819.50
2023-08-14T06:50:42.966Z,97820.41
2023-08-14T06:53:10.100Z,97816.09
2023-08-14T06:55:37.245Z,97819.50
2023-08-14T06:58:05.014Z,97819.31
2023-08-14T07:00:32.362Z,97817.16
2023-08-14T07:02:59.700Z,97814.53
2023-08-14T07:05:26.857Z,97812.03
2023-08-14T07:07:53.933Z,97809.84
2023-08-14T07:10:21.089Z,97803.03
2023-08-14T07:12:49.788Z,97804.44
2023-08-14T07:15:16.971Z,97806.72
2023-08-14T07:17:44.259Z,97812.53
2023-08-14T07:20:12.228Z,97810.63
2023-08-14T07:22:39.989Z,97809.25
2023-08-14T07:25:07.589Z,97793.91
2023-08-14T07:27:35.004Z,97801.78
2023-08-14T07:30:02.163Z,97800.34
2023-08-14T07:32:29.390Z,97803.31
2023-08-14T07:34:56.722Z,97801.28
2023-08-14T07:37:28.742Z,97805.22
2023-08-14T07:39:56.090Z,97807.56
2023-08-14T07:42:23.338Z,97797.69
2023-08-14T07:44:53.328Z,97799.72
2023-08-14T07:47:20.620Z,97803.63
2023-08-14T07:49:47.969Z,97807.09
2023-08-14T07:52:15.145Z,97823.84
2023-08-14T07:54:42.262Z,97845.44
2023-08-14T07:57:09.488Z,97853.34
2023-08-14T07:59:36.563Z,97842.19
2023-08-14T08:02:03.746Z,97843.72
2023-08-14T08:04:40.983Z,97858.44
2023-08-14T08:07:11.094Z,97863.81
2023-08-14T08:09:41.518Z,97863.16
2023-08-14T08:12:09.231Z,97868.53
2023-08-14T08:14:36.862Z,97867.69
2023-08-14T08:17:04.232Z,97864.09
2023-08-14T08:19:31.397Z,97861.22
2023-08-14T08:21:58.653Z,97865.94
2023-08-14T08:24:25.710Z,97867.53
2023-08-14T08:26:52.912Z,97873.53
2023-08-14T08:29:20.549Z,97882.00
2023-08-14T08:31:47.710Z,97885.91
2023-08-14T08:34:14.890Z,97875.25
2023-08-14T08:36:42.131Z,97878.44
2023-08-14T08:39:09.248Z,97879.09
2023-08-14T08:41:39.980Z,97874.19
2023-08-14T08:44:26.902Z,97869.50
2023-08-14T08:47:08.601Z,97878.84
2023-08-14T08:49:36.955Z,97880.25
2023-08-14T08:52:05.169Z,97888.56
2023-08-14T08:54:36.010Z,97881.56
2023-08-14T08:57:06.213Z,97883.63
2023-08-14T08:59:34.380Z,97883.03
2023-08-14T09:02:01.948Z,97882.44
2023-08-14T09:04:29.315Z,97885.16
2023-08-14T09:06:57.087Z,97876.28
2023-08-14T09:09:24.590Z,97876.94
2023-08-14T09:11:51.724Z,97878.59
2023-08-14T09:14:19.396Z,97893.50
2023-08-14T09:16:53.330Z,97893.06
2023-08-14T09:19:21.345Z,97881.75
2023-08-14T09:21:48.534Z,97880.59
2023-08-14T09:24:19.198Z,97877.50
2023-08-14T09:26:46.645Z,97873.94
2023-08-14T09:31:46.283Z,97871.72
2023-08-14T09:34:19.153Z,97873.59
2023-08-14T09:36:48.875Z,97867.41
2023-08-14T09:39:18.945Z,97872.72
2023-08-14T09:41:52.641Z,97871.00
2023-08-14T09:44:21.489Z,97862.22
2023-08-14T09:46:53.544Z,97868.25
2023-08-14T09:49:20.828Z,97874.00
2023-08-14T09:51:58.647Z,97863.13
2023-08-14T09:54:34.623Z,97860.50
2023-08-14T09:57:08.683Z,97865.78
2023-08-14T09:59:37.635Z,97872.56
2023-08-14T10:02:09.932Z,97867.50
2023-08-14T10:04:38.562Z,97868.53
2023-08-14T10:07:06.836Z,97876.56
2023-08-14T10:09:36.118Z,97876.66
2023-08-14T10:12:12.657Z,97879.50
2023-08-14T10:14:46.827Z,97882.84
2023-08-14T10:17:21.143Z,97901.56
2023-08-14T10:19:53.841Z,97906.41
2023-08-14T10:22:24.116Z,97902.28
2023-08-14T10:24:53.519Z,97919.91
2023-08-14T10:27:21.648Z,97915.84
2023-08-14T10:29:50.248Z,97923.09
2023-08-14T10:32:18.391Z,97918.91
2023-08-14T10:34:46.337Z,97926.84
2023-08-14T10:37:41.801Z,97921.91
2023-08-14T10:40:22.383Z,97920.13
2023-08-14T10:42:54.486Z,97922.34
2023-08-14T10:45:27.246Z,97922.69
2023-08-14T10:48:00.048Z,97926.91
2023-08-14T10:50:30.035Z,97924.19
2023-08-14T10:52:58.219Z,97926.16
2023-08-14T10:55:38.902Z,97947.31
2023-08-14T10:58:32.669Z,97952.19
2023-08-14T11:01:07.496Z,97962.78
2023-08-14T11:03:55.082Z,97948.88
2023-08-14T11:06:46.707Z,97941.28
2023-08-14T11:09:16.594Z,97935.25
2023-08-14T11:11:49.792Z,97944.88
2023-08-14T11:14:17.158Z,97941.53
2023-08-14T11:16:50.793Z,97937.91
2023-08-14T11:19:20.379Z,97939.56
2023-08-14T11:21:50.684Z,97940.13
2023-08-14T11:24:18.096Z,97936.28
2023-08-14T11:26:45.260Z,97936.28
2023-08-14T11:29:12.486Z,97937.47
2023-08-14T11:31:41.965Z,97922.34
2023-08-14T11:34:15.925Z,97922.69
2023-08-14T11:37:06.628Z,97925.72
2023-08-14T11:39:35.758Z,97927.69
2023-08-14T11:42:04.824Z,97921.28
2023-08-14T11:44:33.256Z,97923.25
2023-08-14T11:47:00.714Z,97909.66
2023-08-14T11:49:29.700Z,97901.19
2023-08-14T11:51:56.983Z,97904.06
2023-08-14T11:54:26.222Z,97897.66
2023-08-14T11:56:54.264Z,97896.63
2023-08-14T11:59:21.725Z,97919.56
2023-08-14T12:01:49.261Z,97915.69
2023-08-14T12:04:16.469Z,97917.44
2023-08-14T12:06:44.314Z,97902.19
2023-08-14T12:09:13.024Z,97901.16
2023-08-14T12:11:40.593Z,97893.13
2023-08-14T12:14:08.712Z,97898.41
2023-08-14T12:16:42.014Z,97904.78
2023-08-14T12:19:13.614Z,97899.88
2023-08-14T12:21:41.142Z,97881.56
2023-08-14T12:24:08.643Z,97904.50
2023-08-14T12:26:43.539Z,97897.00
2023-08-14T12:29:11.354Z,97899.16
2023-08-14T12:31:38.798Z,97905.78
2023-08-14T12:34:07.734Z,97897.81
2023-08-14T12:36:36.094Z,97884.34
2023-08-14T12:39:03.301Z,97868.72
2023-08-14T12:41:30.672Z,97861.00
2023-08-14T12:43:58.096Z,97851.63
2023-08-14T12:46:25.294Z,97859.25
2023-08-14T12:48:52.379Z,97861.69
2023-08-14T12:51:19.460Z,97857.34
2023-08-14T12:53:46.711Z,97859.91
2023-08-14T12:56:18.233Z,97835.66
2023-08-14T13:01:16.354Z,97809.69
2023-08-14T13:03:43.863Z,97795.66
2023-08-14T13:06:11.629Z,97788.88
2023-08-14T13:08:39.394Z,97776.94
2023-08-14T13:11:06.562Z,97762.97
2023-08-14T13:13:33.727Z,97749.78
2023-08-14T13:16:02.645Z,97756.88
2023-08-14T13:18:30.192Z,97784.47
2023-08-14T13:20:57.575Z,97792.97
2023-08-14T13:23:24.893Z,97810.22
2023-08-14T13:25:52.329Z,97805.16
2023-08-14T13:28:19.499Z,97807.03
2023-08-14T13:30:46.758Z,97810.56
2023-08-14T13:33:13.952Z,97808.78
2023-08-14T13:35:41.691Z,97799.25
2023-08-14T13:38:08.862Z,97795.81
2023-08-14T13:40:36.611Z,97804.72
2023-08-14T13:43:04.418Z,97805.38
2023-08-14T13:45:32.051Z,97810.22
2023-08-14T13:47:59.530Z,97811.94
2023-08-14T13:50:33.213Z,97812.41
2023-08-14T13:53:02.888Z,97819.84
2023-08-14T13:55:31.790Z,97824.91
2023-08-14T13:57:59.534Z,97830.97
2023-08-14T14:00:29.656Z,97832.56
2023-08-14T14:03:00.821Z,97821.28
2023-08-14T14:05:29.302Z,97814.88
2023-08-14T14:07:57.980Z,97806.75
2023-08-14T14:10:26.708Z,97804.84
2023-08-14T14:15:24.725Z,97807.56
2023-08-14T14:17:52.048Z,97810.00
2023-08-14T14:20:20.113Z,97817.03
2023-08-14T14:22:47.195Z,97812.13
2023-08-14T14:25:14.629Z,97801.72
2023-08-14T14:27:42.229Z,97806.03
2023-08-14T14:30:10.232Z,97807.63
2023-08-14T14:32:37.659Z,97813.31
2023-08-14T14:35:05.237Z,97816.47
2023-08-14T14:37:32.490Z,97815.88
2023-08-14T14:39:59.783Z,97819.72
2023-08-14T14:42:27.203Z,97811.50
2023-08-14T14:44:55.766Z,97810.91
2023-08-14T14:47:25.000Z,97821.03
2023-08-14T14:49:53.288Z,97823.13
2023-08-14T14:52:20.597Z,97822.72
2023-08-14T14:54:47.676Z,97819.38
2023-08-14T14:57:15.059Z,97818.63
2023-08-14T14:59:43.549Z,97816.31
2023-08-14T15:02:23.469Z,97814.34
2023-08-14T15:04:55.296Z,97819.22
2023-08-14T15:07:22.796Z,97822.59
2023-08-14T15:09:49.962Z,97824.09
2023-08-14T15:12:17.343Z,97820.25
2023-08-14T15:14:44.426Z,97827.75
2023-08-14T15:17:12.081Z,97821.81
2023-08-14T15:19:39.679Z,97824.97
2023-08-14T15:22:06.816Z,97821.13
2023-08-14T15:24:33.964Z,97824.31
2023-08-14T15:27:01.204Z,97818.94
2023-08-14T15:29:28.320Z,97816.22
2023-08-14T15:31:55.402Z,97816.41
2023-08-14T15:34:22.596Z,97813.28
2023-08-14T15:36:49.655Z,97805.41
2023-08-14T15:39:16.743Z,97803.28
2023-08-14T15:41:43.938Z,97796.69
2023-08-14T15:44:11.336Z,97792.34
2023-08-14T15:46:38.498Z,97799.69
2023-08-14T15:49:05.666Z,97800.19
2023-08-14T15:51:32.771Z,97797.63
2023-08-14T15:53:59.906Z,97805.97
2023-08-14T15:56:27.132Z,97797.84
2023-08-14T15:58:54.249Z,97795.75
2023-08-14T16:01:21.548Z,97800.31
2023-08-14T16:03:48.901Z,97797.88
2023-08-14T16:06:16.021Z,97800.47
2023-08-14T16:08:43.288Z,97794.16
2023-08-14T16:11:10.476Z,97800.66
2023-08-14T16:13:37.725Z,97796.50
2023-08-14T16:16:05.186Z,97797.09
2023-08-14T16:18:33.251Z,97783.19
2023-08-14T16:21:00.932Z,97792.13
2023-08-14T16:23:28.032Z,97784.25
2023-08-14T16:25:55.294Z,97789.19
2023-08-14T16:28:22.858Z,97783.72
2023-08-14T16:30:50.181Z,97790.06
2023-08-14T16:33:17.405Z,97788.56
2023-08-14T16:35:44.661Z,97784.63
2023-08-14T16:38:11.940Z,97788.91
2023-08-14T16:40:43.742Z,97775.34
2023-08-14T16:43:11.573Z,97772.94
2023-08-14T16:45:39.531Z,97765.84
2023-08-14T16:48:07.239Z,97764.78
2023-08-14T16:50:39.543Z,97770.25
2023-08-14T16:53:07.178Z,97761.22
2023-08-14T16:55:35.071Z,97763.84
2023-08-14T16:58:03.050Z,97755.22
2023-08-14T17:00:33.796Z,97758.63
2023-08-14T17:03:03.781Z,97756.97
2023-08-14T17:05:31.361Z,97760.63
2023-08-14T17:07:58.654Z,97748.56
2023-08-14T17:10:26.142Z,97748.88
2023-08-14T17:12:53.373Z,97764.03
2023-08-14T17:15:20.523Z,97762.41
2023-08-14T17:17:47.737Z,97759.84
2023-08-14T17:20:14.981Z,97755.75
2023-08-14T17:22:42.833Z,97748.19
2023-08-14T17:25:10.442Z,97747.63
2023-08-14T17:27:37.781Z,97746.78
2023-08-14T17:30:05.470Z,97755.97
2023-08-14T17:32:33.891Z,97750.56
2023-08-14T17:35:01.144Z,97746.03
2023-08-14T17:37:28.264Z,97749.50
2023-08-14T17:39:56.020Z,97754.44
2023-08-14T17:42:23.272Z,97749.41
2023-08-14T17:44:50.476Z,97755.19
2023-08-14T17:47:17.990Z,97752.16
2023-08-14T17:49:45.361Z,97753.44
2023-08-14T17:52:12.420Z,97749.72
2023-08-14T17:54:39.770Z,97756.53
2023-08-14T17:57:06.887Z,97756.44
2023-08-14T17:59:34.019Z,97751.00
2023-08-14T18:02:01.339Z,97749.34
2023-08-14T18:04:28.443Z,97752.81
2023-08-14T18:06:56.070Z,97750.59
2023-08-14T18:09:23.433Z,97746.59
2023-08-14T18:11:50.623Z,97754.22
2023-08-14T18:14:17.875Z,97748.44
2023-08-14T18:16:45.001Z,97757.22
2023-08-14T18:19:28.599Z,97759.66
2023-08-14T18:21:57.623Z,97753.13
2023-08-14T18:24:24.776Z,97750.38
2023-08-14T18:26:51.924Z,97755.56
2023-08-14T18:29:19.153Z,97753.88
2023-08-14T18:31:46.493Z,97748.75
2023-08-14T18:34:13.930Z,97751.28
2023-08-14T18:36:41.090Z,97746.53
2023-08-14T18:39:08.259Z,97747.22
2023-08-14T18:41:38.047Z,97737.19
2023-08-14T18:44:05.921Z,97747.72
2023-08-14T18:46:33.187Z,97747.72
2023-08-14T18:49:00.417Z,97751.06
2023-08-14T18:51:27.559Z,97752.56
2023-08-14T18:53:55.226Z,97751.03
2023-08-14T18:56:22.305Z,97757.13
2023-08-14T18:58:51.040Z,97760.50
2023-08-14T19:01:18.360Z,97757.50
2023-08-14T19:03:45.534Z,97756.03
2023-08-14T19:06:12.766Z,97749.25
2023-08-14T19:08:40.445Z,97752.03
2023-08-14T19:11:07.699Z,97748.34
2023-08-14T19:13:34.984Z,97754.84
2023-08-14T19:16:02.248Z,97754.66
2023-08-14T19:18:29.830Z,97765.06
2023-08-14T19:20:58.042Z,97751.97
2023-08-14T19:23:25.304Z,97757.84
2023-08-14T19:25:53.044Z,97764.44
2023-08-14T19:28:22.377Z,97757.81
2023-08-14T19:30:51.085Z,97760.59
2023-08-14T19:33:18.275Z,97757.41
2023-08-14T19:35:45.505Z,97764.00
2023-08-14T19:38:12.798Z,97761.25
2023-08-14T19:40:39.939Z,97764.03
2023-08-14T19:43:07.051Z,97762.28
2023-08-14T19:45:36.725Z,97765.13
2023-08-14T19:48:05.856Z,97773.03
2023-08-14T19:50:34.107Z,97768.94
2023-08-14T19:53:04.411Z,97775.19
2023-08-14T19:55:31.513Z,97772.97
2023-08-14T19:57:58.741Z,97774.28
2023-08-14T20:00:26.295Z,97778.69
2023-08-14T20:02:54.274Z,97772.28
2023-08-14T20:05:21.677Z,97776.66
2023-08-14T20:07:48.892Z,97781.81
2023-08-14T20:10:17.140Z,97783.22
2023-08-14T20:12:44.776Z,97776.31
2023-08-14T20:15:12.483Z,97777.72
2023-08-14T20:17:39.926Z,97779.00
2023-08-14T20:20:08.287Z,97769.72
2023-08-14T20:22:35.394Z,97777.81
2023-08-14T20:25:02.753Z,97776.47
2023-08-14T20:27:29.897Z,97776.81
2023-08-14T20:29:57.150Z,97776.44
2023-08-14T20:32:24.292Z,97782.22
2023-08-14T20:34:51.437Z,97784.28
2023-08-14T20:37:18.801Z,97787.09
2023-08-14T20:39:47.442Z,97794.94
2023-08-14T20:42:14.521Z,97794.38
2023-08-14T20:44:41.760Z,97791.94
2023-08-14T20:47:09.620Z,97788.84
2023-08-14T20:49:36.704Z,97780.47
2023-08-14T20:52:04.733Z,97796.28
2023-08-14T20:54:32.081Z,97793.19
2023-08-14T20:56:59.350Z,97795.38
2023-08-14T20:59:26.520Z,97797.25
2023-08-14T21:01:54.762Z,97792.28
2023-08-14T21:04:22.574Z,97790.47
2023-08-14T21:06:49.846Z,97791.13
2023-08-14T21:09:17.034Z,97794.06
2023-08-14T21:11:44.164Z,97793.94
2023-08-14T21:14:11.291Z,97790.81
2023-08-14T21:16:38.542Z,97781.25
2023-08-14T21:19:05.914Z,97786.06
2023-08-14T21:21:33.174Z,97781.88
2023-08-14T21:24:00.329Z,97787.47
2023-08-14T21:26:27.764Z,97787.03
2023-08-14T21:28:54.982Z,97789.66
2023-08-14T21:31:22.075Z,97796.63
2023-08-14T21:33:50.673Z,97804.25
2023-08-14T21:36:17.936Z,97799.59
2023-08-14T21:38:45.066Z,97795.75
2023-08-14T21:41:12.375Z,97793.41
2023-08-14T21:43:40.091Z,97798.22
2023-08-14T21:46:07.236Z,97803.03
2023-08-14T21:48:34.348Z,97811.25
2023-08-14T21:51:01.556Z,97813.09
2023-08-14T21:53:28.651Z,97821.59
2023-08-14T21:55:56.017Z,97810.50
2023-08-14T21:58:23.088Z,97804.31
2023-08-14T22:00:50.622Z,97808.63
2023-08-14T22:03:17.787Z,97804.00
2023-08-14T22:05:44.938Z,97808.50
2023-08-14T22:08:12.096Z,97808.78
2023-08-14T22:10:39.145Z,97811.28
2023-08-14T22:13:06.208Z,97808.81
2023-08-14T22:15:44.869Z,97812.06
2023-08-14T22:18:14.110Z,97804.19
2023-08-14T22:20:41.977Z,97809.75
2023-08-14T22:23:11.635Z,97809.59
2023-08-14T22:25:40.456Z,97807.59
2023-08-14T22:28:07.696Z,97800.31
2023-08-14T22:30:34.847Z,97799.88
2023-08-14T22:33:02.146Z,97803.59
2023-08-14T22:35:29.512Z,97804.19
2023-08-14T22:37:57.344Z,97795.53
2023-08-14T22:40:24.626Z,97799.84
2023-08-14T22:42:51.693Z,97800.78
2023-08-14T22:45:18.838Z,97794.28
2023-08-14T22:47:45.992Z,97803.06
2023-08-14T22:50:13.089Z,97799.53
2023-08-14T22:52:40.188Z,97795.81
2023-08-14T22:55:07.822Z,97801.84
2023-08-14T22:57:35.117Z,97804.47
2023-08-14T23:00:02.270Z,97802.94
2023-08-14T23:02:29.561Z,97811.09
2023-08-14T23:04:57.324Z,97798.13
2023-08-14T23:07:24.578Z,97793.03
2023-08-14T23:09:51.719Z,97790.22
2023-08-14T23:12:18.873Z,97792.09
2023-08-14T23:14:45.997Z,97793.94
2023-08-14T23:17:13.106Z,97791.00
2023-08-14T23:19:40.220Z,97794.72
2023-08-14T23:22:07.518Z,97798.44
2023-08-14T23:24:34.656Z,97790.09
2023-08-14T23:27:01.824Z,97791.47
2023-08-14T23:29:29.028Z,97783.72
2023-08-14T23:31:56.142Z,97787.75
2023-08-14T23:34:23.430Z,97789.91
2023-08-14T23:36:50.638Z,97789.88
2023-08-14T23:39:19.391Z,97778.88
2023-08-14T23:41:46.768Z,97771.94
2023-08-14T23:44:14.099Z,97766.53
2023-08-14T23:46:41.373Z,97773.16
2023-08-14T23:49:08.566Z,97761.84
2023-08-14T23:54:23.420Z,97754.47
2023-08-14T23:56:50.551Z,97756.31
2023-08-14T23:59:19.260Z,97753.97
